createdAt,value
2023-02-28T00:01:30.030Z,76.74
2023-02-28T00:03:58.803Z,76.91
2023-02-28T00:06:27.641Z,77.14
2023-02-28T00:08:55.603Z,77.37
2023-02-28T00:11:23.836Z,77.55
2023-02-28T00:13:51.942Z,77.48
2023-02-28T00:16:22.622Z,77.57
2023-02-28T00:18:51.554Z,77.74
2023-02-28T00:21:20.414Z,77.88
2023-02-28T00:23:48.581Z,78.03
2023-02-28T00:26:16.807Z,78.20
2023-02-28T00:28:46.115Z,78.39
2023-02-28T00:31:14.137Z,78.48
2023-02-28T00:33:42.194Z,78.64
2023-02-28T00:36:12.128Z,78.73
2023-02-28T00:38:42.034Z,78.77
2023-02-28T00:41:10.382Z,78.85
2023-02-28T00:43:40.056Z,78.90
2023-02-28T00:46:09.114Z,78.93
2023-02-28T00:48:37.402Z,79.02
2023-02-28T00:51:05.990Z,79.07
2023-02-28T00:53:35.003Z,79.19
2023-02-28T00:56:04.150Z,79.27
2023-02-28T00:58:33.324Z,79.27
2023-02-28T01:01:01.380Z,79.33
2023-02-28T01:03:29.288Z,79.40
2023-02-28T01:05:57.297Z,79.51
2023-02-28T01:08:26.950Z,79.62
2023-02-28T01:10:55.317Z,79.67
2023-02-28T01:13:24.440Z,79.78
2023-02-28T01:15:55.857Z,79.91
2023-02-28T01:18:24.101Z,80.01
2023-02-28T01:20:53.552Z,80.09
2023-02-28T01:23:24.656Z,80.15
2023-02-28T01:25:53.794Z,80.23
2023-02-28T01:28:22.144Z,80.29
2023-02-28T01:30:52.365Z,80.42
2023-02-28T01:33:20.456Z,80.54
2023-02-28T01:35:48.725Z,80.58
2023-02-28T01:38:22.623Z,80.65
2023-02-28T01:40:52.061Z,80.82
2023-02-28T01:43:28.843Z,80.98
2023-02-28T01:45:59.030Z,81.09
2023-02-28T01:48:33.592Z,81.14
2023-02-28T01:51:08.934Z,81.23
2023-02-28T01:53:45.144Z,81.32
2023-02-28T01:56:21.418Z,81.35
2023-02-28T01:58:55.260Z,81.41
2023-02-28T02:01:27.833Z,81.46
2023-02-28T02:04:00.140Z,81.49
2023-02-28T02:06:37.102Z,81.48
2023-02-28T02:09:05.378Z,81.47
2023-02-28T02:11:34.972Z,81.49
2023-02-28T02:14:33.788Z,81.51
2023-02-28T02:17:32.039Z,81.59
2023-02-28T02:20:25.778Z,81.68
2023-02-28T02:22:53.722Z,81.74
2023-02-28T02:25:22.108Z,81.85
2023-02-28T02:28:12.896Z,81.89
2023-02-28T02:31:22.001Z,81.89
2023-02-28T02:34:14.064Z,81.78
2023-02-28T02:36:53.247Z,81.75
2023-02-28T02:39:34.020Z,81.44
2023-02-28T02:42:11.528Z,81.65
2023-02-28T02:44:51.979Z,81.85
2023-02-28T02:47:22.950Z,82.02
2023-02-28T02:49:56.211Z,82.11
2023-02-28T02:52:34.934Z,82.12
2023-02-28T02:55:05.027Z,82.20
2023-02-28T02:58:00.381Z,82.28
2023-02-28T03:00:38.720Z,82.28
2023-02-28T03:03:09.771Z,82.25
2023-02-28T03:05:47.049Z,82.28
2023-02-28T03:08:16.381Z,82.34
2023-02-28T03:10:47.317Z,82.43
2023-02-28T03:13:55.376Z,82.55
2023-02-28T03:16:50.772Z,82.55
2023-02-28T03:19:49.156Z,82.59
2023-02-28T03:22:25.935Z,82.65
2023-02-28T03:25:01.300Z,82.72
2023-02-28T03:27:37.992Z,82.83
2023-02-28T03:30:10.476Z,82.88
2023-02-28T03:32:47.727Z,82.92
2023-02-28T03:35:22.889Z,82.95
2023-02-28T03:37:54.466Z,82.98
2023-02-28T03:40:26.896Z,83.00
2023-02-28T03:43:02.850Z,83.03
2023-02-28T03:45:34.725Z,83.10
2023-02-28T03:48:24.467Z,83.16
2023-02-28T03:50:58.464Z,83.20
2023-02-28T03:53:40.963Z,83.26
2023-02-28T03:56:23.314Z,83.28
2023-02-28T03:59:07.778Z,83.23
2023-02-28T04:02:52.627Z,83.22
2023-02-28T04:05:22.290Z,83.08
2023-02-28T04:07:50.344Z,83.09
2023-02-28T04:10:18.868Z,83.09
2023-02-28T04:12:46.838Z,83.07
2023-02-28T04:15:15.062Z,83.06
2023-02-28T04:17:43.466Z,83.06
2023-02-28T04:20:12.699Z,83.10
2023-02-28T04:22:40.645Z,83.11
2023-02-28T04:25:09.093Z,83.14
2023-02-28T04:27:37.227Z,83.19
2023-02-28T04:34:37.535Z,83.26
2023-02-28T04:37:13.258Z,83.35
2023-02-28T04:39:43.262Z,83.49
2023-02-28T04:42:12.769Z,83.55
2023-02-28T04:44:40.770Z,83.57
2023-02-28T04:47:08.607Z,83.53
2023-02-28T04:49:36.880Z,83.50
2023-02-28T04:52:05.348Z,83.49
2023-02-28T04:54:33.268Z,83.44
2023-02-28T04:57:02.527Z,83.39
2023-02-28T04:59:30.482Z,83.39
2023-02-28T05:01:58.410Z,83.41
2023-02-28T05:04:26.541Z,83.47
2023-02-28T05:06:54.549Z,83.51
2023-02-28T05:09:22.500Z,83.51
2023-02-28T05:11:50.525Z,83.52
2023-02-28T05:14:18.464Z,83.53
2023-02-28T05:16:46.469Z,83.59
2023-02-28T05:19:14.331Z,83.67
2023-02-28T05:21:51.619Z,83.71
2023-02-28T05:24:23.806Z,83.73
2023-02-28T05:26:54.004Z,83.75
2023-02-28T05:29:23.004Z,83.75
2023-02-28T05:31:51.391Z,83.73
2023-02-28T05:34:19.477Z,83.68
2023-02-28T05:36:47.547Z,83.66
2023-02-28T05:39:15.645Z,83.70
2023-02-28T05:41:44.334Z,83.77
2023-02-28T05:44:12.374Z,83.83
2023-02-28T05:46:40.315Z,83.92
2023-02-28T05:49:08.388Z,84.06
2023-02-28T05:51:37.448Z,84.34
2023-02-28T05:54:05.599Z,84.64
2023-02-28T05:56:35.588Z,84.76
2023-02-28T05:59:03.834Z,84.55
2023-02-28T06:01:34.165Z,84.01
2023-02-28T06:04:04.050Z,83.43
2023-02-28T06:06:32.989Z,82.79
2023-02-28T06:09:01.968Z,82.25
2023-02-28T06:11:30.284Z,81.88
2023-02-28T06:14:00.777Z,81.72
2023-02-28T06:16:30.424Z,81.51
2023-02-28T06:19:00.019Z,81.46
2023-02-28T06:21:29.172Z,81.26
2023-02-28T06:23:58.804Z,80.97
2023-02-28T06:26:26.943Z,80.47
2023-02-28T06:28:55.871Z,79.70
2023-02-28T06:36:05.396Z,79.16
2023-02-28T06:38:33.874Z,78.41
2023-02-28T06:41:03.066Z,77.87
2023-02-28T06:43:33.335Z,77.39
2023-02-28T06:46:03.166Z,77.12
2023-02-28T06:48:31.219Z,76.69
2023-02-28T06:51:05.030Z,76.44
2023-02-28T06:53:33.926Z,76.47
2023-02-28T06:56:09.575Z,75.69
2023-02-28T06:58:38.608Z,75.12
2023-02-28T07:01:07.295Z,74.89
2023-02-28T07:03:37.010Z,74.27
2023-02-28T07:06:06.568Z,73.20
2023-02-28T07:08:36.149Z,72.24
2023-02-28T07:11:04.703Z,71.10
2023-02-28T07:13:32.992Z,70.72
2023-02-28T07:16:03.289Z,70.61
2023-02-28T07:18:32.244Z,70.31
2023-02-28T07:21:03.836Z,68.40
2023-02-28T07:23:32.294Z,67.96
2023-02-28T07:26:00.284Z,66.96
2023-02-28T07:28:28.453Z,66.44
2023-02-28T07:30:56.668Z,66.08
2023-02-28T07:33:25.151Z,65.12
2023-02-28T07:35:53.137Z,64.04
2023-02-28T07:38:21.104Z,63.55
2023-02-28T07:40:49.221Z,62.71
2023-02-28T07:43:17.194Z,62.07
2023-02-28T07:45:45.140Z,58.80
2023-02-28T07:48:13.142Z,57.33
2023-02-28T07:50:41.195Z,58.46
2023-02-28T07:53:09.174Z,59.24
2023-02-28T07:55:37.271Z,58.43
2023-02-28T07:58:05.304Z,57.24
2023-02-28T08:00:33.752Z,57.40
2023-02-28T08:03:01.931Z,55.23
2023-02-28T08:05:31.915Z,56.53
2023-02-28T08:08:00.025Z,56.84
2023-02-28T08:10:28.057Z,57.14
2023-02-28T08:12:55.975Z,55.05
2023-02-28T08:15:24.032Z,55.10
2023-02-28T08:17:52.080Z,54.04
2023-02-28T08:20:20.386Z,53.28
2023-02-28T08:22:48.423Z,52.31
2023-02-28T08:25:16.829Z,53.20
2023-02-28T08:27:45.449Z,54.40
2023-02-28T08:30:15.541Z,54.39
2023-02-28T08:32:43.817Z,54.87
2023-02-28T08:35:11.949Z,51.92
2023-02-28T08:37:40.141Z,50.44
2023-02-28T08:40:08.852Z,52.22
2023-02-28T08:42:37.230Z,54.60
2023-02-28T08:45:05.888Z,53.41
2023-02-28T08:47:33.948Z,53.82
2023-02-28T08:50:03.918Z,52.37
2023-02-28T08:52:31.941Z,50.81
2023-02-28T08:54:59.951Z,49.53
2023-02-28T08:57:28.425Z,48.06
2023-02-28T08:59:56.395Z,47.63
2023-02-28T09:02:24.700Z,45.74
2023-02-28T09:04:52.683Z,47.12
2023-02-28T09:07:20.786Z,47.31
2023-02-28T09:09:55.058Z,46.74
2023-02-28T09:12:27.504Z,47.63
2023-02-28T09:14:55.587Z,48.53
2023-02-28T09:17:23.967Z,48.09
2023-02-28T09:19:52.018Z,47.61
2023-02-28T09:22:20.130Z,46.59
2023-02-28T09:24:48.190Z,47.18
2023-02-28T09:27:16.181Z,48.66
2023-02-28T09:29:44.280Z,47.93
2023-02-28T09:32:12.413Z,46.96
2023-02-28T09:34:40.538Z,48.21
2023-02-28T09:37:08.631Z,47.84
2023-02-28T09:39:37.864Z,48.34
2023-02-28T09:42:07.718Z,49.38
2023-02-28T09:44:45.167Z,49.32
2023-02-28T09:47:31.603Z,49.11
2023-02-28T09:50:08.291Z,50.20
2023-02-28T09:52:37.825Z,49.22
2023-02-28T09:55:35.249Z,49.27
2023-02-28T09:58:54.724Z,49.32
2023-02-28T10:01:33.949Z,50.21
2023-02-28T10:04:36.490Z,49.75
2023-02-28T10:07:19.440Z,48.44
2023-02-28T10:09:54.913Z,49.41
2023-02-28T10:12:23.317Z,49.31
2023-02-28T10:14:54.009Z,48.34
2023-02-28T10:17:28.981Z,49.46
2023-02-28T10:20:12.632Z,51.09
2023-02-28T10:23:11.120Z,51.77
2023-02-28T10:25:40.573Z,52.17
2023-02-28T10:28:15.345Z,50.88
2023-02-28T10:30:47.351Z,52.05
2023-02-28T10:33:39.001Z,51.86
2023-02-28T10:36:11.329Z,50.83
2023-02-28T10:38:40.996Z,49.80
2023-02-28T10:41:10.200Z,49.37
2023-02-28T10:43:40.733Z,50.75
2023-02-28T10:46:11.837Z,51.21
2023-02-28T10:48:40.077Z,51.21
2023-02-28T10:51:19.903Z,50.98
2023-02-28T10:54:03.645Z,51.92
2023-02-28T10:56:33.820Z,49.58
2023-02-28T10:59:03.460Z,50.14
2023-02-28T11:04:38.844Z,51.62
2023-02-28T11:07:20.664Z,51.40
2023-02-28T11:09:53.642Z,50.44
2023-02-28T11:12:27.889Z,50.95
2023-02-28T11:15:05.703Z,50.49
2023-02-28T11:17:34.237Z,49.67
2023-02-28T11:20:22.046Z,49.80
2023-02-28T11:22:52.388Z,50.61
2023-02-28T11:25:30.497Z,50.97
2023-02-28T11:28:03.339Z,50.66
2023-02-28T11:30:43.198Z,50.75
2023-02-28T11:33:23.696Z,51.34
2023-02-28T11:35:53.612Z,50.80
2023-02-28T11:38:21.611Z,50.20
2023-02-28T11:40:55.335Z,51.27
2023-02-28T11:43:45.341Z,51.81
2023-02-28T11:46:42.095Z,51.86
2023-02-28T11:49:18.930Z,51.53
2023-02-28T11:52:00.178Z,52.47
2023-02-28T11:54:46.726Z,52.39
2023-02-28T11:57:28.910Z,52.11
2023-02-28T12:00:03.200Z,52.17
2023-02-28T12:03:09.200Z,52.63
2023-02-28T12:05:47.569Z,50.61
2023-02-28T12:08:41.248Z,50.92
2023-02-28T12:11:34.197Z,51.36
2023-02-28T12:14:20.634Z,51.68
2023-02-28T12:17:15.051Z,51.32
2023-02-28T12:20:19.932Z,51.19
2023-02-28T12:23:06.864Z,51.43
2023-02-28T12:25:52.051Z,51.02
2023-02-28T12:28:28.249Z,50.55
2023-02-28T12:31:18.509Z,51.51
2023-02-28T12:33:52.792Z,51.59
2023-02-28T12:36:27.218Z,51.84
2023-02-28T12:39:12.278Z,51.08
2023-02-28T12:41:55.351Z,50.29
2023-02-28T12:44:31.823Z,51.05
2023-02-28T12:47:05.791Z,51.70
2023-02-28T12:50:05.513Z,52.03
2023-02-28T12:52:54.261Z,51.98
2023-02-28T12:55:31.140Z,51.76
2023-02-28T12:58:20.813Z,50.87
2023-02-28T13:01:29.010Z,51.52
2023-02-28T13:04:32.595Z,52.01
2023-02-28T13:07:15.069Z,51.70
2023-02-28T13:09:54.645Z,51.62
2023-02-28T13:12:24.086Z,51.94
2023-02-28T13:15:02.161Z,52.64
2023-02-28T13:17:30.428Z,52.96
2023-02-28T13:20:00.612Z,52.71
2023-02-28T13:22:46.925Z,52.39
2023-02-28T13:25:23.970Z,52.62
2023-02-28T13:28:02.071Z,52.31
2023-02-28T13:30:52.237Z,52.37
2023-02-28T13:33:26.192Z,52.20
2023-02-28T13:36:11.043Z,51.89
2023-02-28T13:38:47.356Z,52.80
2023-02-28T13:41:31.172Z,53.29
2023-02-28T13:44:07.157Z,53.14
2023-02-28T13:46:50.350Z,53.84
2023-02-28T13:49:25.980Z,53.82
2023-02-28T13:55:12.890Z,54.36
2023-02-28T13:57:54.210Z,53.97
2023-02-28T14:00:56.862Z,53.86
2023-02-28T14:04:16.449Z,54.11
2023-02-28T14:07:03.659Z,54.14
2023-02-28T14:09:38.973Z,53.92
2023-02-28T14:12:44.403Z,54.24
2023-02-28T14:15:48.262Z,54.29
2023-02-28T14:18:32.360Z,54.32
2023-02-28T14:21:21.861Z,54.29
2023-02-28T14:24:05.160Z,54.56
2023-02-28T14:26:58.452Z,54.21
2023-02-28T14:29:41.719Z,54.52
2023-02-28T14:32:47.540Z,54.97
2023-02-28T14:35:27.409Z,54.98
2023-02-28T14:37:56.100Z,54.63
2023-02-28T14:40:24.339Z,54.36
2023-02-28T14:43:00.872Z,54.24
2023-02-28T14:45:34.111Z,54.41
2023-02-28T14:48:05.188Z,54.67
2023-02-28T14:50:37.395Z,54.59
2023-02-28T14:53:16.459Z,55.06
2023-02-28T14:55:47.109Z,53.96
2023-02-28T14:58:26.378Z,53.48
2023-02-28T15:00:57.458Z,53.10
2023-02-28T15:03:31.435Z,52.80
2023-02-28T15:06:05.668Z,52.82
2023-02-28T15:08:37.269Z,52.39
2023-02-28T15:11:07.222Z,52.88
2023-02-28T15:13:43.085Z,52.73
2023-02-28T15:16:43.052Z,52.96
2023-02-28T15:19:37.509Z,53.51
2023-02-28T15:22:09.348Z,53.73
2023-02-28T15:24:37.506Z,53.63
2023-02-28T15:27:12.138Z,53.88
2023-02-28T15:29:48.520Z,54.16
2023-02-28T15:32:29.622Z,54.43
2023-02-28T15:34:59.564Z,54.71
2023-02-28T15:37:27.596Z,55.07
2023-02-28T15:39:57.622Z,55.45
2023-02-28T15:42:30.398Z,55.67
2023-02-28T15:44:58.729Z,55.93
2023-02-28T15:47:31.721Z,56.33
2023-02-28T15:50:03.328Z,56.48
2023-02-28T15:52:37.616Z,56.81
2023-02-28T15:55:20.780Z,57.39
2023-02-28T15:57:53.247Z,57.78
2023-02-28T16:00:24.554Z,58.02
2023-02-28T16:02:53.238Z,58.24
2023-02-28T16:05:32.901Z,58.57
2023-02-28T16:08:16.049Z,58.90
2023-02-28T16:10:44.665Z,59.03
2023-02-28T16:13:16.204Z,59.83
2023-02-28T16:15:44.986Z,60.37
2023-02-28T16:18:14.146Z,60.71
2023-02-28T16:20:42.497Z,61.31
2023-02-28T16:23:10.494Z,61.58
2023-02-28T16:25:42.864Z,61.80
2023-02-28T16:28:16.380Z,62.48
2023-02-28T16:30:44.610Z,62.06
2023-02-28T16:33:12.682Z,63.31
2023-02-28T16:35:41.155Z,63.92
2023-02-28T16:38:09.143Z,64.28
2023-02-28T16:40:37.585Z,64.70
2023-02-28T16:43:16.439Z,64.95
2023-02-28T16:45:44.702Z,65.13
2023-02-28T16:48:17.108Z,65.34
2023-02-28T16:50:46.084Z,65.58
2023-02-28T16:53:14.585Z,65.89
2023-02-28T16:55:42.868Z,66.21
2023-02-28T16:58:17.154Z,66.55
2023-02-28T17:00:45.415Z,66.80
2023-02-28T17:03:32.684Z,67.14
2023-02-28T17:06:02.196Z,67.24
2023-02-28T17:08:33.086Z,67.87
2023-02-28T17:11:02.674Z,68.25
2023-02-28T17:13:31.196Z,68.31
2023-02-28T17:15:59.402Z,68.73
2023-02-28T17:18:30.002Z,68.95
2023-02-28T17:20:58.136Z,69.34
2023-02-28T17:23:26.274Z,69.77
2023-02-28T17:25:56.296Z,70.14
2023-02-28T17:28:25.893Z,70.49
2023-02-28T17:30:54.242Z,70.85
2023-02-28T17:33:23.514Z,71.19
2023-02-28T17:35:52.166Z,71.44
2023-02-28T17:38:21.002Z,71.68
2023-02-28T17:40:49.076Z,71.97
2023-02-28T17:43:17.123Z,72.26
2023-02-28T17:45:45.254Z,72.33
2023-02-28T17:48:13.860Z,72.37
2023-02-28T17:50:41.961Z,72.40
2023-02-28T17:53:09.966Z,72.39
2023-02-28T17:55:38.665Z,72.45
2023-02-28T17:58:07.212Z,72.53
2023-02-28T18:00:35.549Z,72.68
2023-02-28T18:03:03.689Z,72.89
2023-02-28T18:05:32.569Z,73.18
2023-02-28T18:08:26.007Z,73.40
2023-02-28T18:10:53.912Z,73.47
2023-02-28T18:13:22.217Z,73.81
2023-02-28T18:15:50.403Z,74.09
2023-02-28T18:18:18.851Z,74.29
2023-02-28T18:20:49.427Z,74.51
2023-02-28T18:23:19.163Z,74.85
2023-02-28T18:25:47.329Z,75.23
2023-02-28T18:28:15.285Z,75.49
2023-02-28T18:30:43.395Z,75.61
2023-02-28T18:33:11.287Z,75.64
2023-02-28T18:35:39.992Z,75.64
2023-02-28T18:38:21.231Z,75.74
2023-02-28T18:41:08.373Z,75.76
2023-02-28T18:43:40.639Z,75.77
2023-02-28T18:46:12.132Z,75.89
2023-02-28T18:48:40.774Z,76.18
2023-02-28T18:51:14.459Z,76.41
2023-02-28T18:53:44.022Z,76.58
2023-02-28T18:56:16.057Z,76.67
2023-02-28T18:58:44.921Z,76.74
2023-02-28T19:04:36.806Z,76.35
2023-02-28T19:07:04.954Z,76.74
2023-02-28T19:09:33.197Z,77.22
2023-02-28T19:12:01.404Z,77.55
2023-02-28T19:14:29.809Z,77.74
2023-02-28T19:16:58.206Z,77.90
2023-02-28T19:19:26.231Z,78.30
2023-02-28T19:21:55.586Z,78.38
2023-02-28T19:24:24.352Z,78.39
2023-02-28T19:26:52.428Z,78.46
2023-02-28T19:29:20.589Z,78.62
2023-02-28T19:31:48.909Z,78.77
2023-02-28T19:34:17.127Z,79.14
2023-02-28T19:36:45.215Z,79.55
2023-02-28T19:39:13.553Z,79.82
2023-02-28T19:41:41.648Z,79.94
2023-02-28T19:44:09.689Z,80.08
2023-02-28T19:46:38.159Z,80.13
2023-02-28T19:49:06.448Z,80.14
2023-02-28T19:51:34.467Z,80.19
2023-02-28T19:54:03.913Z,80.16
2023-02-28T19:56:32.119Z,80.14
2023-02-28T19:59:00.170Z,79.95
2023-02-28T20:01:28.264Z,79.86
2023-02-28T20:03:56.281Z,79.90
2023-02-28T20:06:24.636Z,79.95
2023-02-28T20:08:54.530Z,80.01
2023-02-28T20:11:22.485Z,80.00
2023-02-28T20:13:52.994Z,79.99
2023-02-28T20:16:21.223Z,80.03
2023-02-28T20:18:53.711Z,80.11
2023-02-28T20:21:21.721Z,80.17
2023-02-28T20:23:50.202Z,80.24
2023-02-28T20:26:21.338Z,80.34
2023-02-28T20:28:49.560Z,80.40
2023-02-28T20:31:25.725Z,80.45
2023-02-28T20:33:54.207Z,80.50
2023-02-28T20:36:23.622Z,80.55
2023-02-28T20:38:53.011Z,80.44
2023-02-28T20:41:21.607Z,80.38
2023-02-28T20:43:58.283Z,80.40
2023-02-28T20:46:26.789Z,80.42
2023-02-28T20:48:55.055Z,80.41
2023-02-28T20:51:23.566Z,80.39
2023-02-28T20:53:51.783Z,80.40
2023-02-28T20:56:23.786Z,80.54
2023-02-28T20:58:52.539Z,80.66
2023-02-28T21:01:26.129Z,80.36
2023-02-28T21:03:59.669Z,80.75
2023-02-28T21:06:31.855Z,81.06
2023-02-28T21:09:00.457Z,81.23
2023-02-28T21:11:33.907Z,81.21
2023-02-28T21:14:04.633Z,81.12
2023-02-28T21:16:33.332Z,81.09
2023-02-28T21:19:05.002Z,81.15
2023-02-28T21:21:43.806Z,81.48
2023-02-28T21:24:13.351Z,81.86
2023-02-28T21:26:42.372Z,82.17
2023-02-28T21:29:11.636Z,82.41
2023-02-28T21:31:40.780Z,82.45
2023-02-28T21:34:09.752Z,82.45
2023-02-28T21:36:41.089Z,82.42
2023-02-28T21:39:15.744Z,82.34
2023-02-28T21:41:44.109Z,82.15
2023-02-28T21:44:18.978Z,82.15
2023-02-28T21:46:54.929Z,82.24
2023-02-28T21:49:23.057Z,82.29
2023-02-28T21:51:51.063Z,82.31
2023-02-28T21:54:19.065Z,82.36
2023-02-28T21:56:47.076Z,82.47
2023-02-28T21:59:15.176Z,82.59
2023-02-28T22:01:44.549Z,82.69
2023-02-28T22:04:21.331Z,82.85
2023-02-28T22:06:52.538Z,83.04
2023-02-28T22:09:20.917Z,83.25
2023-02-28T22:11:50.422Z,83.33
2023-02-28T22:14:18.914Z,83.61
2023-02-28T22:16:52.268Z,83.88
2023-02-28T22:19:21.979Z,84.09
2023-02-28T22:21:50.511Z,84.25
2023-02-28T22:24:20.669Z,84.45
2023-02-28T22:26:50.017Z,84.58
2023-02-28T22:29:18.508Z,84.68
2023-02-28T22:31:47.052Z,84.82
2023-02-28T22:34:15.319Z,84.95
2023-02-28T22:36:44.177Z,85.08
2023-02-28T22:39:12.478Z,85.20
2023-02-28T22:41:40.749Z,85.25
2023-02-28T22:44:08.890Z,85.27
2023-02-28T22:46:37.086Z,85.34
2023-02-28T22:49:06.160Z,85.48
2023-02-28T22:51:34.741Z,85.53
2023-02-28T22:54:04.440Z,85.61
2023-02-28T22:56:32.996Z,85.77
2023-02-28T22:59:02.049Z,85.80
2023-02-28T23:01:32.360Z,85.74
2023-02-28T23:04:00.432Z,85.70
2023-02-28T23:06:31.704Z,85.78
2023-02-28T23:09:03.868Z,85.89
2023-02-28T23:11:35.112Z,85.86
2023-02-28T23:14:04.401Z,85.81
2023-02-28T23:16:37.363Z,85.72
2023-02-28T23:19:15.334Z,85.65
2023-02-28T23:21:44.581Z,85.56
2023-02-28T23:24:14.886Z,85.44
2023-02-28T23:26:45.597Z,85.27
2023-02-28T23:29:15.303Z,85.08
2023-02-28T23:31:44.107Z,84.92
2023-02-28T23:34:12.723Z,84.75
2023-02-28T23:36:46.278Z,84.61
2023-02-28T23:39:17.497Z,84.40
2023-02-28T23:41:46.107Z,84.16
2023-02-28T23:44:17.134Z,83.98
2023-02-28T23:46:47.071Z,83.87
2023-02-28T23:49:16.250Z,83.81
2023-02-28T23:51:44.167Z,83.77
2023-02-28T23:54:12.089Z,83.71
2023-02-28T23:56:39.935Z,83.71
2023-02-28T23:59:07.877Z,83.67
